sensor_id;sensor_type;location;lat;lon;timestamp;P1;durP1;ratioP1;P2;durP2;ratioP2
29294;SDS011;16305;48.566;8.846;2022-11-20T00:03:38;5.90;;;5.30;;
29294;SDS011;16305;48.566;8.846;2022-11-20T00:06:04;10.10;;;5.07;;
29294;SDS011;16305;48.566;8.846;2022-11-20T00:08:31;6.07;;;4.93;;
29294;SDS011;16305;48.566;8.846;2022-11-20T00:11:01;7.80;;;5.07;;
29294;SDS011;16305;48.566;8.846;2022-11-20T00:13:48;7.13;;;5.23;;
29294;SDS011;16305;48.566;8.846;2022-11-20T00:16:19;6.43;;;5.27;;
29294;SDS011;16305;48.566;8.846;2022-11-20T00:18:47;6.57;;;5.57;;
29294;SDS011;16305;48.566;8.846;2022-11-20T00:21:14;5.97;;;4.90;;
29294;SDS011;16305;48.566;8.846;2022-11-20T00:23:50;5.63;;;4.73;;
29294;SDS011;16305;48.566;8.846;2022-11-20T00:26:18;5.80;;;4.80;;
29294;SDS011;16305;48.566;8.846;2022-11-20T00:28:49;5.50;;;4.57;;
29294;SDS011;16305;48.566;8.846;2022-11-20T00:31:22;6.63;;;4.43;;
29294;SDS011;16305;48.566;8.846;2022-11-20T00:33:48;5.03;;;4.17;;
29294;SDS011;16305;48.566;8.846;2022-11-20T00:36:18;4.57;;;4.10;;
29294;SDS011;16305;48.566;8.846;2022-11-20T00:38:46;5.83;;;4.97;;
29294;SDS011;16305;48.566;8.846;2022-11-20T00:41:13;4.80;;;4.30;;
29294;SDS011;16305;48.566;8.846;2022-11-20T00:43:40;5.53;;;4.70;;
29294;SDS011;16305;48.566;8.846;2022-11-20T00:46:07;7.27;;;4.30;;
29294;SDS011;16305;48.566;8.846;2022-11-20T00:48:34;4.93;;;3.80;;
29294;SDS011;16305;48.566;8.846;2022-11-20T00:51:00;6.20;;;4.20;;
29294;SDS011;16305;48.566;8.846;2022-11-20T00:53:25;4.20;;;3.70;;
29294;SDS011;16305;48.566;8.846;2022-11-20T00:55:55;3.73;;;3.30;;
29294;SDS011;16305;48.566;8.846;2022-11-20T00:58:22;4.13;;;3.20;;
29294;SDS011;16305;48.566;8.846;2022-11-20T01:00:48;7.00;;;3.63;;
29294;SDS011;16305;48.566;8.846;2022-11-20T01:03:17;6.07;;;3.83;;
29294;SDS011;16305;48.566;8.846;2022-11-20T01:05:43;5.43;;;4.13;;
29294;SDS011;16305;48.566;8.846;2022-11-20T01:08:09;6.40;;;4.80;;
29294;SDS011;16305;48.566;8.846;2022-11-20T01:10:34;6.97;;;4.73;;
29294;SDS011;16305;48.566;8.846;2022-11-20T01:13:00;8.13;;;5.33;;
29294;SDS011;16305;48.566;8.846;2022-11-20T01:15:44;6.40;;;4.67;;
29294;SDS011;16305;48.566;8.846;2022-11-20T01:18:09;6.03;;;4.70;;
29294;SDS011;16305;48.566;8.846;2022-11-20T01:20:35;7.03;;;4.60;;
29294;SDS011;16305;48.566;8.846;2022-11-20T01:23:02;6.20;;;5.07;;
29294;SDS011;16305;48.566;8.846;2022-11-20T01:25:28;6.33;;;5.20;;
29294;SDS011;16305;48.566;8.846;2022-11-20T01:27:54;6.47;;;5.43;;
29294;SDS011;16305;48.566;8.846;2022-11-20T01:30:19;8.30;;;5.13;;
29294;SDS011;16305;48.566;8.846;2022-11-20T01:32:45;8.93;;;5.97;;
29294;SDS011;16305;48.566;8.846;2022-11-20T01:35:10;7.57;;;5.33;;
29294;SDS011;16305;48.566;8.846;2022-11-20T01:37:36;7.20;;;5.37;;
29294;SDS011;16305;48.566;8.846;2022-11-20T01:40:02;6.87;;;5.03;;
29294;SDS011;16305;48.566;8.846;2022-11-20T01:42:28;7.03;;;5.50;;
29294;SDS011;16305;48.566;8.846;2022-11-20T01:48:15;6.43;;;5.20;;
29294;SDS011;16305;48.566;8.846;2022-11-20T01:50:42;7.63;;;5.50;;
29294;SDS011;16305;48.566;8.846;2022-11-20T01:53:08;6.40;;;5.37;;
29294;SDS011;16305;48.566;8.846;2022-11-20T01:55:41;8.20;;;5.83;;
29294;SDS011;16305;48.566;8.846;2022-11-20T01:58:12;6.73;;;5.53;;
29294;SDS011;16305;48.566;8.846;2022-11-20T02:00:38;9.43;;;5.40;;
29294;SDS011;16305;48.566;8.846;2022-11-20T02:03:06;8.97;;;5.73;;
29294;SDS011;16305;48.566;8.846;2022-11-20T02:08:08;11.87;;;6.70;;
29294;SDS011;16305;48.566;8.846;2022-11-20T02:10:33;8.10;;;6.80;;
29294;SDS011;16305;48.566;8.846;2022-11-20T02:12:59;9.90;;;7.17;;
29294;SDS011;16305;48.566;8.846;2022-11-20T02:15:43;9.57;;;7.67;;
29294;SDS011;16305;48.566;8.846;2022-11-20T02:18:10;12.27;;;6.97;;
29294;SDS011;16305;48.566;8.846;2022-11-20T02:20:38;9.93;;;7.90;;
29294;SDS011;16305;48.566;8.846;2022-11-20T02:25:35;13.43;;;9.30;;
29294;SDS011;16305;48.566;8.846;2022-11-20T02:28:02;12.47;;;9.47;;
29294;SDS011;16305;48.566;8.846;2022-11-20T02:30:29;11.93;;;9.43;;
29294;SDS011;16305;48.566;8.846;2022-11-20T02:32:54;14.80;;;9.63;;
29294;SDS011;16305;48.566;8.846;2022-11-20T02:37:49;14.13;;;9.07;;
29294;SDS011;16305;48.566;8.846;2022-11-20T02:40:17;13.33;;;8.80;;
29294;SDS011;16305;48.566;8.846;2022-11-20T02:42:43;13.13;;;8.87;;
29294;SDS011;16305;48.566;8.846;2022-11-20T02:45:09;16.10;;;9.17;;
29294;SDS011;16305;48.566;8.846;2022-11-20T02:47:35;11.37;;;8.50;;
29294;SDS011;16305;48.566;8.846;2022-11-20T02:50:00;11.60;;;8.20;;
29294;SDS011;16305;48.566;8.846;2022-11-20T02:52:26;13.03;;;9.03;;
29294;SDS011;16305;48.566;8.846;2022-11-20T02:54:52;12.83;;;8.77;;
29294;SDS011;16305;48.566;8.846;2022-11-20T02:57:17;13.67;;;9.40;;
29294;SDS011;16305;48.566;8.846;2022-11-20T02:59:43;12.37;;;8.43;;
29294;SDS011;16305;48.566;8.846;2022-11-20T03:02:08;13.77;;;8.60;;
29294;SDS011;16305;48.566;8.846;2022-11-20T03:04:34;13.13;;;8.53;;
29294;SDS011;16305;48.566;8.846;2022-11-20T03:06:59;11.93;;;8.87;;
29294;SDS011;16305;48.566;8.846;2022-11-20T03:09:25;12.53;;;9.00;;
29294;SDS011;16305;48.566;8.846;2022-11-20T03:11:51;12.30;;;9.03;;
29294;SDS011;16305;48.566;8.846;2022-11-20T03:14:16;12.63;;;8.23;;
29294;SDS011;16305;48.566;8.846;2022-11-20T03:16:42;10.23;;;7.83;;
29294;SDS011;16305;48.566;8.846;2022-11-20T03:19:07;10.07;;;8.57;;
29294;SDS011;16305;48.566;8.846;2022-11-20T03:21:33;10.40;;;8.30;;
29294;SDS011;16305;48.566;8.846;2022-11-20T03:23:59;12.87;;;8.23;;
29294;SDS011;16305;48.566;8.846;2022-11-20T03:26:25;9.20;;;7.87;;
29294;SDS011;16305;48.566;8.846;2022-11-20T03:31:23;11.53;;;8.53;;
29294;SDS011;16305;48.566;8.846;2022-11-20T03:33:50;11.10;;;8.43;;
29294;SDS011;16305;48.566;8.846;2022-11-20T03:36:17;11.37;;;8.43;;
29294;SDS011;16305;48.566;8.846;2022-11-20T03:38:44;11.87;;;8.57;;
29294;SDS011;16305;48.566;8.846;2022-11-20T03:41:11;12.13;;;8.57;;
29294;SDS011;16305;48.566;8.846;2022-11-20T03:43:38;12.50;;;8.23;;
29294;SDS011;16305;48.566;8.846;2022-11-20T03:46:04;10.80;;;8.20;;
29294;SDS011;16305;48.566;8.846;2022-11-20T03:48:30;10.70;;;7.90;;
29294;SDS011;16305;48.566;8.846;2022-11-20T03:51:09;14.50;;;8.70;;
29294;SDS011;16305;48.566;8.846;2022-11-20T03:53:43;12.97;;;7.90;;
29294;SDS011;16305;48.566;8.846;2022-11-20T03:56:10;14.77;;;8.77;;
29294;SDS011;16305;48.566;8.846;2022-11-20T03:58:37;11.27;;;8.33;;
29294;SDS011;16305;48.566;8.846;2022-11-20T04:01:07;10.60;;;8.37;;
29294;SDS011;16305;48.566;8.846;2022-11-20T04:03:43;10.37;;;8.20;;
29294;SDS011;16305;48.566;8.846;2022-11-20T04:06:14;12.97;;;8.57;;
29294;SDS011;16305;48.566;8.846;2022-11-20T04:08:41;11.80;;;8.30;;
29294;SDS011;16305;48.566;8.846;2022-11-20T04:11:40;11.23;;;7.83;;
29294;SDS011;16305;48.566;8.846;2022-11-20T04:14:01;9.87;;;7.17;;
29294;SDS011;16305;48.566;8.846;2022-11-20T04:16:34;8.77;;;7.43;;
29294;SDS011;16305;48.566;8.846;2022-11-20T04:19:01;9.63;;;7.97;;
29294;SDS011;16305;48.566;8.846;2022-11-20T04:21:28;12.00;;;7.97;;
29294;SDS011;16305;48.566;8.846;2022-11-20T04:23:54;10.53;;;7.77;;
29294;SDS011;16305;48.566;8.846;2022-11-20T04:26:21;12.60;;;7.80;;
29294;SDS011;16305;48.566;8.846;2022-11-20T04:28:48;11.53;;;8.17;;
29294;SDS011;16305;48.566;8.846;2022-11-20T04:31:15;11.07;;;8.17;;
29294;SDS011;16305;48.566;8.846;2022-11-20T04:33:42;12.33;;;8.10;;
29294;SDS011;16305;48.566;8.846;2022-11-20T04:36:12;11.17;;;8.17;;
29294;SDS011;16305;48.566;8.846;2022-11-20T04:38:41;14.43;;;8.27;;
29294;SDS011;16305;48.566;8.846;2022-11-20T04:41:08;10.97;;;8.33;;
29294;SDS011;16305;48.566;8.846;2022-11-20T04:43:39;11.87;;;8.50;;
29294;SDS011;16305;48.566;8.846;2022-11-20T04:46:04;12.77;;;8.00;;
29294;SDS011;16305;48.566;8.846;2022-11-20T04:48:30;10.87;;;8.53;;
29294;SDS011;16305;48.566;8.846;2022-11-20T04:50:55;9.70;;;7.37;;
29294;SDS011;16305;48.566;8.846;2022-11-20T04:53:22;14.27;;;9.00;;
29294;SDS011;16305;48.566;8.846;2022-11-20T04:55:48;12.57;;;8.60;;
29294;SDS011;16305;48.566;8.846;2022-11-20T04:58:14;11.10;;;8.50;;
29294;SDS011;16305;48.566;8.846;2022-11-20T05:00:40;10.00;;;8.20;;
29294;SDS011;16305;48.566;8.846;2022-11-20T05:03:06;11.07;;;8.20;;
29294;SDS011;16305;48.566;8.846;2022-11-20T05:05:33;9.23;;;7.60;;
29294;SDS011;16305;48.566;8.846;2022-11-20T05:07:59;10.90;;;8.00;;
29294;SDS011;16305;48.566;8.846;2022-11-20T05:10:25;11.43;;;8.53;;
29294;SDS011;16305;48.566;8.846;2022-11-20T05:12:51;9.83;;;7.80;;
29294;SDS011;16305;48.566;8.846;2022-11-20T05:15:17;11.80;;;7.83;;
29294;SDS011;16305;48.566;8.846;2022-11-20T05:17:46;9.83;;;8.20;;
29294;SDS011;16305;48.566;8.846;2022-11-20T05:20:13;12.67;;;8.37;;
29294;SDS011;16305;48.566;8.846;2022-11-20T05:22:38;12.30;;;8.33;;
29294;SDS011;16305;48.566;8.846;2022-11-20T05:25:04;11.87;;;8.40;;
29294;SDS011;16305;48.566;8.846;2022-11-20T05:27:30;11.00;;;8.43;;
29294;SDS011;16305;48.566;8.846;2022-11-20T05:29:55;10.27;;;7.40;;
29294;SDS011;16305;48.566;8.846;2022-11-20T05:32:21;11.33;;;8.67;;
29294;SDS011;16305;48.566;8.846;2022-11-20T05:34:50;11.10;;;8.67;;
29294;SDS011;16305;48.566;8.846;2022-11-20T05:37:16;13.43;;;8.03;;
29294;SDS011;16305;48.566;8.846;2022-11-20T05:39:41;9.13;;;7.67;;
29294;SDS011;16305;48.566;8.846;2022-11-20T05:42:07;10.33;;;7.83;;
29294;SDS011;16305;48.566;8.846;2022-11-20T05:44:51;14.00;;;7.83;;
29294;SDS011;16305;48.566;8.846;2022-11-20T05:47:17;10.70;;;8.00;;
29294;SDS011;16305;48.566;8.846;2022-11-20T05:49:42;11.00;;;8.27;;
29294;SDS011;16305;48.566;8.846;2022-11-20T05:52:08;11.60;;;8.23;;
29294;SDS011;16305;48.566;8.846;2022-11-20T05:54:33;9.17;;;7.30;;
29294;SDS011;16305;48.566;8.846;2022-11-20T05:56:59;13.97;;;8.60;;
29294;SDS011;16305;48.566;8.846;2022-11-20T05:59:25;15.90;;;8.67;;
29294;SDS011;16305;48.566;8.846;2022-11-20T06:01:50;11.40;;;7.93;;
29294;SDS011;16305;48.566;8.846;2022-11-20T06:04:16;11.40;;;7.50;;
29294;SDS011;16305;48.566;8.846;2022-11-20T06:06:41;11.07;;;7.77;;
29294;SDS011;16305;48.566;8.846;2022-11-20T06:09:07;10.17;;;7.63;;
29294;SDS011;16305;48.566;8.846;2022-11-20T06:11:32;9.37;;;7.10;;
29294;SDS011;16305;48.566;8.846;2022-11-20T06:13:58;7.80;;;6.97;;
29294;SDS011;16305;48.566;8.846;2022-11-20T06:16:23;7.17;;;6.13;;
29294;SDS011;16305;48.566;8.846;2022-11-20T06:18:49;9.70;;;7.83;;
29294;SDS011;16305;48.566;8.846;2022-11-20T06:21:16;9.23;;;6.67;;
29294;SDS011;16305;48.566;8.846;2022-11-20T06:23:43;8.97;;;6.20;;
29294;SDS011;16305;48.566;8.846;2022-11-20T06:26:12;8.33;;;6.50;;
29294;SDS011;16305;48.566;8.846;2022-11-20T06:28:39;9.13;;;7.20;;
29294;SDS011;16305;48.566;8.846;2022-11-20T06:31:05;11.53;;;7.83;;
29294;SDS011;16305;48.566;8.846;2022-11-20T06:33:32;8.40;;;6.70;;
29294;SDS011;16305;48.566;8.846;2022-11-20T06:35:58;9.83;;;6.90;;
29294;SDS011;16305;48.566;8.846;2022-11-20T06:38:25;7.03;;;5.70;;
29294;SDS011;16305;48.566;8.846;2022-11-20T06:40:51;9.17;;;5.07;;
29294;SDS011;16305;48.566;8.846;2022-11-20T06:43:17;6.10;;;4.90;;
29294;SDS011;16305;48.566;8.846;2022-11-20T06:45:43;5.57;;;4.73;;
29294;SDS011;16305;48.566;8.846;2022-11-20T06:48:08;7.90;;;4.83;;
29294;SDS011;16305;48.566;8.846;2022-11-20T06:50:35;8.40;;;5.70;;
29294;SDS011;16305;48.566;8.846;2022-11-20T06:53:02;6.90;;;6.20;;
29294;SDS011;16305;48.566;8.846;2022-11-20T06:55:28;8.40;;;6.60;;
29294;SDS011;16305;48.566;8.846;2022-11-20T06:57:54;7.97;;;6.60;;
29294;SDS011;16305;48.566;8.846;2022-11-20T07:00:20;9.50;;;6.67;;
29294;SDS011;16305;48.566;8.846;2022-11-20T07:02:45;6.80;;;6.10;;
29294;SDS011;16305;48.566;8.846;2022-11-20T07:05:11;8.43;;;6.63;;
29294;SDS011;16305;48.566;8.846;2022-11-20T07:07:36;8.30;;;6.03;;
29294;SDS011;16305;48.566;8.846;2022-11-20T07:10:02;6.07;;;4.43;;
29294;SDS011;16305;48.566;8.846;2022-11-20T07:12:28;5.00;;;4.40;;
29294;SDS011;16305;48.566;8.846;2022-11-20T07:14:53;5.27;;;4.67;;
29294;SDS011;16305;48.566;8.846;2022-11-20T07:17:19;5.77;;;4.00;;
29294;SDS011;16305;48.566;8.846;2022-11-20T07:19:45;3.90;;;3.50;;
29294;SDS011;16305;48.566;8.846;2022-11-20T07:22:10;5.13;;;3.33;;
29294;SDS011;16305;48.566;8.846;2022-11-20T07:24:36;4.60;;;3.53;;
29294;SDS011;16305;48.566;8.846;2022-11-20T07:27:01;5.90;;;3.50;;
29294;SDS011;16305;48.566;8.846;2022-11-20T07:29:27;4.90;;;4.10;;
29294;SDS011;16305;48.566;8.846;2022-11-20T07:31:52;5.57;;;4.20;;
29294;SDS011;16305;48.566;8.846;2022-11-20T07:34:20;5.50;;;3.90;;
29294;SDS011;16305;48.566;8.846;2022-11-20T07:36:45;5.87;;;4.07;;
29294;SDS011;16305;48.566;8.846;2022-11-20T07:39:11;4.17;;;3.77;;
29294;SDS011;16305;48.566;8.846;2022-11-20T07:41:36;4.93;;;4.10;;
29294;SDS011;16305;48.566;8.846;2022-11-20T07:44:02;4.90;;;3.33;;
29294;SDS011;16305;48.566;8.846;2022-11-20T07:46:28;4.10;;;3.53;;
29294;SDS011;16305;48.566;8.846;2022-11-20T07:48:53;5.60;;;3.70;;
29294;SDS011;16305;48.566;8.846;2022-11-20T07:51:19;4.10;;;3.60;;
29294;SDS011;16305;48.566;8.846;2022-11-20T07:53:44;5.73;;;4.00;;
29294;SDS011;16305;48.566;8.846;2022-11-20T07:56:10;5.43;;;3.40;;
29294;SDS011;16305;48.566;8.846;2022-11-20T07:58:35;4.63;;;4.20;;
29294;SDS011;16305;48.566;8.846;2022-11-20T08:01:05;3.67;;;3.20;;
29294;SDS011;16305;48.566;8.846;2022-11-20T08:03:31;5.77;;;3.93;;
29294;SDS011;16305;48.566;8.846;2022-11-20T08:06:00;4.57;;;3.40;;
29294;SDS011;16305;48.566;8.846;2022-11-20T08:08:27;5.17;;;4.37;;
29294;SDS011;16305;48.566;8.846;2022-11-20T08:10:53;4.37;;;3.97;;
29294;SDS011;16305;48.566;8.846;2022-11-20T08:13:39;4.87;;;3.97;;
29294;SDS011;16305;48.566;8.846;2022-11-20T08:16:23;4.40;;;3.63;;
29294;SDS011;16305;48.566;8.846;2022-11-20T08:18:48;3.27;;;2.97;;
29294;SDS011;16305;48.566;8.846;2022-11-20T08:21:14;4.90;;;3.00;;
29294;SDS011;16305;48.566;8.846;2022-11-20T08:23:40;3.77;;;2.70;;
29294;SDS011;16305;48.566;8.846;2022-11-20T08:26:05;3.73;;;2.57;;
29294;SDS011;16305;48.566;8.846;2022-11-20T08:28:31;2.50;;;2.30;;
29294;SDS011;16305;48.566;8.846;2022-11-20T08:31:00;2.60;;;2.17;;
29294;SDS011;16305;48.566;8.846;2022-11-20T08:33:26;4.90;;;2.40;;
29294;SDS011;16305;48.566;8.846;2022-11-20T08:35:52;1.90;;;1.80;;
29294;SDS011;16305;48.566;8.846;2022-11-20T08:38:18;1.90;;;1.50;;
29294;SDS011;16305;48.566;8.846;2022-11-20T08:40:43;1.90;;;1.60;;
29294;SDS011;16305;48.566;8.846;2022-11-20T08:43:31;1.73;;;1.63;;
29294;SDS011;16305;48.566;8.846;2022-11-20T08:45:57;1.90;;;1.80;;
29294;SDS011;16305;48.566;8.846;2022-11-20T08:48:22;2.17;;;1.93;;
29294;SDS011;16305;48.566;8.846;2022-11-20T08:50:48;2.63;;;2.00;;
29294;SDS011;16305;48.566;8.846;2022-11-20T08:53:13;3.90;;;2.00;;
29294;SDS011;16305;48.566;8.846;2022-11-20T08:55:39;2.33;;;1.80;;
29294;SDS011;16305;48.566;8.846;2022-11-20T08:58:05;1.90;;;1.57;;
29294;SDS011;16305;48.566;8.846;2022-11-20T09:00:32;1.80;;;1.60;;
29294;SDS011;16305;48.566;8.846;2022-11-20T09:02:58;2.10;;;1.90;;
29294;SDS011;16305;48.566;8.846;2022-11-20T09:05:25;2.77;;;1.67;;
29294;SDS011;16305;48.566;8.846;2022-11-20T09:07:51;2.97;;;2.20;;
29294;SDS011;16305;48.566;8.846;2022-11-20T09:10:17;1.80;;;1.53;;
29294;SDS011;16305;48.566;8.846;2022-11-20T09:12:42;5.43;;;4.20;;
29294;SDS011;16305;48.566;8.846;2022-11-20T09:15:08;1.70;;;1.57;;
29294;SDS011;16305;48.566;8.846;2022-11-20T09:17:36;1.93;;;1.80;;
29294;SDS011;16305;48.566;8.846;2022-11-20T09:20:01;2.43;;;2.00;;
29294;SDS011;16305;48.566;8.846;2022-11-20T09:22:27;1.40;;;1.30;;
29294;SDS011;16305;48.566;8.846;2022-11-20T09:24:52;1.77;;;1.67;;
29294;SDS011;16305;48.566;8.846;2022-11-20T09:27:18;1.50;;;1.40;;
29294;SDS011;16305;48.566;8.846;2022-11-20T09:29:47;2.97;;;1.83;;
29294;SDS011;16305;48.566;8.846;2022-11-20T09:32:12;2.10;;;1.90;;
29294;SDS011;16305;48.566;8.846;2022-11-20T09:34:38;1.97;;;1.67;;
29294;SDS011;16305;48.566;8.846;2022-11-20T09:37:03;2.27;;;1.40;;
29294;SDS011;16305;48.566;8.846;2022-11-20T09:39:29;4.63;;;1.60;;
29294;SDS011;16305;48.566;8.846;2022-11-20T09:47:36;1.80;;;1.63;;
29294;SDS011;16305;48.566;8.846;2022-11-20T09:55:40;1.77;;;1.60;;
29294;SDS011;16305;48.566;8.846;2022-11-20T09:58:06;2.23;;;1.57;;
29294;SDS011;16305;48.566;8.846;2022-11-20T10:00:41;2.33;;;2.13;;
29294;SDS011;16305;48.566;8.846;2022-11-20T10:03:14;1.70;;;1.60;;
29294;SDS011;16305;48.566;8.846;2022-11-20T10:05:45;2.37;;;1.70;;
29294;SDS011;16305;48.566;8.846;2022-11-20T10:08:19;2.23;;;1.70;;
29294;SDS011;16305;48.566;8.846;2022-11-20T10:11:13;2.90;;;1.80;;
29294;SDS011;16305;48.566;8.846;2022-11-20T10:16:41;2.00;;;1.70;;
29294;SDS011;16305;48.566;8.846;2022-11-20T10:22:34;2.23;;;1.10;;
29294;SDS011;16305;48.566;8.846;2022-11-20T10:30:26;2.27;;;1.63;;
29294;SDS011;16305;48.566;8.846;2022-11-20T10:32:54;3.77;;;2.70;;
29294;SDS011;16305;48.566;8.846;2022-11-20T10:35:28;1.80;;;1.37;;
29294;SDS011;16305;48.566;8.846;2022-11-20T10:38:05;2.57;;;2.03;;
29294;SDS011;16305;48.566;8.846;2022-11-20T10:40:46;2.83;;;1.73;;
29294;SDS011;16305;48.566;8.846;2022-11-20T10:43:16;12.67;;;5.33;;
29294;SDS011;16305;48.566;8.846;2022-11-20T10:48:24;3.73;;;1.80;;
29294;SDS011;16305;48.566;8.846;2022-11-20T10:50:59;2.20;;;1.50;;
29294;SDS011;16305;48.566;8.846;2022-11-20T10:56:50;1.93;;;1.67;;
29294;SDS011;16305;48.566;8.846;2022-11-20T11:01:52;2.70;;;1.63;;
29294;SDS011;16305;48.566;8.846;2022-11-20T11:07:08;4.47;;;2.10;;
29294;SDS011;16305;48.566;8.846;2022-11-20T11:09:43;2.00;;;1.80;;
29294;SDS011;16305;48.566;8.846;2022-11-20T11:12:12;4.00;;;2.30;;
29294;SDS011;16305;48.566;8.846;2022-11-20T11:14:41;2.73;;;1.40;;
29294;SDS011;16305;48.566;8.846;2022-11-20T11:17:22;3.67;;;2.30;;
29294;SDS011;16305;48.566;8.846;2022-11-20T11:22:51;2.23;;;1.27;;
29294;SDS011;16305;48.566;8.846;2022-11-20T11:27:49;1.20;;;1.10;;
29294;SDS011;16305;48.566;8.846;2022-11-20T11:30:16;1.73;;;1.10;;
29294;SDS011;16305;48.566;8.846;2022-11-20T11:32:43;1.87;;;1.30;;
29294;SDS011;16305;48.566;8.846;2022-11-20T11:35:23;1.40;;;1.23;;
29294;SDS011;16305;48.566;8.846;2022-11-20T11:37:52;1.87;;;1.30;;
29294;SDS011;16305;48.566;8.846;2022-11-20T11:40:39;1.77;;;1.10;;
29294;SDS011;16305;48.566;8.846;2022-11-20T11:43:06;1.10;;;0.83;;
29294;SDS011;16305;48.566;8.846;2022-11-20T11:46:01;3.60;;;1.33;;
29294;SDS011;16305;48.566;8.846;2022-11-20T11:48:28;0.90;;;0.80;;
29294;SDS011;16305;48.566;8.846;2022-11-20T11:50:54;1.57;;;0.90;;
29294;SDS011;16305;48.566;8.846;2022-11-20T11:53:21;1.53;;;0.97;;
29294;SDS011;16305;48.566;8.846;2022-11-20T11:55:56;2.50;;;1.00;;
29294;SDS011;16305;48.566;8.846;2022-11-20T11:58:38;1.80;;;1.10;;
29294;SDS011;16305;48.566;8.846;2022-11-20T12:03:55;2.63;;;1.07;;
29294;SDS011;16305;48.566;8.846;2022-11-20T12:06:24;4.40;;;1.47;;
29294;SDS011;16305;48.566;8.846;2022-11-20T12:09:13;1.77;;;1.20;;
29294;SDS011;16305;48.566;8.846;2022-11-20T12:11:43;1.60;;;1.50;;
29294;SDS011;16305;48.566;8.846;2022-11-20T12:16:49;2.63;;;1.80;;
29294;SDS011;16305;48.566;8.846;2022-11-20T12:19:15;1.70;;;1.47;;
29294;SDS011;16305;48.566;8.846;2022-11-20T12:30:09;1.80;;;1.40;;
29294;SDS011;16305;48.566;8.846;2022-11-20T12:40:41;5.03;;;2.03;;
29294;SDS011;16305;48.566;8.846;2022-11-20T12:43:21;2.47;;;1.73;;
29294;SDS011;16305;48.566;8.846;2022-11-20T12:48:44;2.20;;;1.10;;
29294;SDS011;16305;48.566;8.846;2022-11-20T12:59:19;1.63;;;0.80;;
29294;SDS011;16305;48.566;8.846;2022-11-20T13:05:19;3.53;;;1.00;;
29294;SDS011;16305;48.566;8.846;2022-11-20T13:07:52;2.40;;;0.80;;
29294;SDS011;16305;48.566;8.846;2022-11-20T13:13:21;2.87;;;1.10;;
29294;SDS011;16305;48.566;8.846;2022-11-20T13:16:02;3.13;;;1.30;;
29294;SDS011;16305;48.566;8.846;2022-11-20T13:18:39;3.10;;;1.53;;
29294;SDS011;16305;48.566;8.846;2022-11-20T13:24:07;3.07;;;1.77;;
29294;SDS011;16305;48.566;8.846;2022-11-20T13:27:05;3.40;;;1.87;;
29294;SDS011;16305;48.566;8.846;2022-11-20T13:29:45;4.90;;;2.00;;
29294;SDS011;16305;48.566;8.846;2022-11-20T13:32:23;3.87;;;2.00;;
29294;SDS011;16305;48.566;8.846;2022-11-20T13:34:56;2.73;;;1.60;;
29294;SDS011;16305;48.566;8.846;2022-11-20T13:37:31;6.87;;;2.70;;
29294;SDS011;16305;48.566;8.846;2022-11-20T13:42:33;3.63;;;2.10;;
29294;SDS011;16305;48.566;8.846;2022-11-20T13:45:08;4.43;;;1.80;;
29294;SDS011;16305;48.566;8.846;2022-11-20T13:48:02;2.80;;;2.17;;
29294;SDS011;16305;48.566;8.846;2022-11-20T14:01:23;3.07;;;1.73;;
29294;SDS011;16305;48.566;8.846;2022-11-20T14:03:49;2.50;;;2.10;;
29294;SDS011;16305;48.566;8.846;2022-11-20T14:06:27;1.53;;;1.40;;
29294;SDS011;16305;48.566;8.846;2022-11-20T14:08:58;3.73;;;1.50;;
29294;SDS011;16305;48.566;8.846;2022-11-20T14:11:25;3.97;;;1.70;;
29294;SDS011;16305;48.566;8.846;2022-11-20T14:16:23;1.93;;;1.57;;
29294;SDS011;16305;48.566;8.846;2022-11-20T14:18:50;2.97;;;1.43;;
29294;SDS011;16305;48.566;8.846;2022-11-20T14:21:22;3.50;;;2.10;;
29294;SDS011;16305;48.566;8.846;2022-11-20T14:23:54;2.90;;;2.20;;
29294;SDS011;16305;48.566;8.846;2022-11-20T14:26:34;1.50;;;1.20;;
29294;SDS011;16305;48.566;8.846;2022-11-20T14:29:12;1.57;;;1.20;;
29294;SDS011;16305;48.566;8.846;2022-11-20T14:31:42;2.87;;;1.43;;
29294;SDS011;16305;48.566;8.846;2022-11-20T14:34:14;3.07;;;2.37;;
29294;SDS011;16305;48.566;8.846;2022-11-20T14:36:43;4.60;;;3.90;;
29294;SDS011;16305;48.566;8.846;2022-11-20T14:39:11;3.30;;;2.63;;
29294;SDS011;16305;48.566;8.846;2022-11-20T14:41:52;6.13;;;3.70;;
29294;SDS011;16305;48.566;8.846;2022-11-20T14:44:24;4.67;;;3.20;;
29294;SDS011;16305;48.566;8.846;2022-11-20T14:46:53;3.57;;;3.00;;
29294;SDS011;16305;48.566;8.846;2022-11-20T14:49:20;4.20;;;2.23;;
29294;SDS011;16305;48.566;8.846;2022-11-20T14:51:46;4.10;;;3.03;;
29294;SDS011;16305;48.566;8.846;2022-11-20T14:54:15;3.97;;;2.70;;
29294;SDS011;16305;48.566;8.846;2022-11-20T14:56:53;3.40;;;2.00;;
29294;SDS011;16305;48.566;8.846;2022-11-20T14:59:27;3.23;;;2.27;;
29294;SDS011;16305;48.566;8.846;2022-11-20T15:01:58;2.80;;;2.60;;
29294;SDS011;16305;48.566;8.846;2022-11-20T15:04:33;7.17;;;4.20;;
29294;SDS011;16305;48.566;8.846;2022-11-20T15:07:08;5.67;;;5.07;;
29294;SDS011;16305;48.566;8.846;2022-11-20T15:09:34;8.40;;;7.60;;
29294;SDS011;16305;48.566;8.846;2022-11-20T15:12:00;12.57;;;9.07;;
29294;SDS011;16305;48.566;8.846;2022-11-20T15:14:27;9.93;;;7.57;;
29294;SDS011;16305;48.566;8.846;2022-11-20T15:16:54;14.30;;;8.43;;
29294;SDS011;16305;48.566;8.846;2022-11-20T15:19:24;34.17;;;19.70;;
29294;SDS011;16305;48.566;8.846;2022-11-20T15:21:51;32.10;;;18.20;;
29294;SDS011;16305;48.566;8.846;2022-11-20T15:24:17;34.27;;;20.50;;
29294;SDS011;16305;48.566;8.846;2022-11-20T15:26:43;27.07;;;17.13;;
29294;SDS011;16305;48.566;8.846;2022-11-20T15:29:13;22.70;;;12.83;;
29294;SDS011;16305;48.566;8.846;2022-11-20T15:31:43;24.03;;;14.37;;
29294;SDS011;16305;48.566;8.846;2022-11-20T15:34:16;17.53;;;11.27;;
29294;SDS011;16305;48.566;8.846;2022-11-20T15:36:42;5.43;;;4.77;;
29294;SDS011;16305;48.566;8.846;2022-11-20T15:39:08;4.50;;;3.70;;
29294;SDS011;16305;48.566;8.846;2022-11-20T15:41:34;6.33;;;4.10;;
29294;SDS011;16305;48.566;8.846;2022-11-20T15:44:00;9.97;;;7.43;;
29294;SDS011;16305;48.566;8.846;2022-11-20T15:46:27;7.60;;;5.80;;
29294;SDS011;16305;48.566;8.846;2022-11-20T15:48:55;5.43;;;4.57;;
29294;SDS011;16305;48.566;8.846;2022-11-20T15:51:26;14.30;;;7.87;;
29294;SDS011;16305;48.566;8.846;2022-11-20T15:53:54;7.07;;;4.40;;
29294;SDS011;16305;48.566;8.846;2022-11-20T15:56:20;8.03;;;4.60;;
29294;SDS011;16305;48.566;8.846;2022-11-20T15:58:46;9.13;;;5.87;;
29294;SDS011;16305;48.566;8.846;2022-11-20T16:01:13;13.03;;;7.93;;
29294;SDS011;16305;48.566;8.846;2022-11-20T16:03:40;6.73;;;5.37;;
29294;SDS011;16305;48.566;8.846;2022-11-20T16:06:06;4.47;;;4.00;;
29294;SDS011;16305;48.566;8.846;2022-11-20T16:08:32;4.17;;;3.70;;
29294;SDS011;16305;48.566;8.846;2022-11-20T16:10:58;6.37;;;4.83;;
29294;SDS011;16305;48.566;8.846;2022-11-20T16:13:23;8.83;;;4.50;;
29294;SDS011;16305;48.566;8.846;2022-11-20T16:16:11;4.70;;;4.20;;
29294;SDS011;16305;48.566;8.846;2022-11-20T16:18:45;4.93;;;4.33;;
29294;SDS011;16305;48.566;8.846;2022-11-20T16:21:11;4.50;;;4.10;;
29294;SDS011;16305;48.566;8.846;2022-11-20T16:23:38;7.53;;;4.37;;
29294;SDS011;16305;48.566;8.846;2022-11-20T16:26:10;4.77;;;3.33;;
29294;SDS011;16305;48.566;8.846;2022-11-20T16:28:42;4.80;;;3.40;;
29294;SDS011;16305;48.566;8.846;2022-11-20T16:31:15;3.47;;;3.00;;
29294;SDS011;16305;48.566;8.846;2022-11-20T16:33:42;5.80;;;3.50;;
29294;SDS011;16305;48.566;8.846;2022-11-20T16:36:12;5.63;;;3.83;;
29294;SDS011;16305;48.566;8.846;2022-11-20T16:38:39;5.23;;;4.20;;
29294;SDS011;16305;48.566;8.846;2022-11-20T16:41:05;7.53;;;4.00;;
29294;SDS011;16305;48.566;8.846;2022-11-20T16:43:31;6.70;;;4.10;;
29294;SDS011;16305;48.566;8.846;2022-11-20T16:45:56;5.57;;;3.50;;